createdAt,value
2023-04-28T08:24:10.806Z,13.45
2023-04-28T08:26:13.608Z,13.45
2023-04-28T08:28:16.673Z,13.16
2023-04-28T08:30:19.131Z,13.32
2023-04-28T08:32:21.791Z,13.59
2023-04-28T08:34:24.739Z,13.61
2023-04-28T08:36:31.942Z,13.50
2023-04-28T08:38:34.898Z,13.64
2023-04-28T08:40:37.497Z,13.90
2023-04-28T08:42:39.912Z,14.08
2023-04-28T08:44:42.595Z,14.33
2023-04-28T08:46:46.217Z,14.61
2023-04-28T08:48:50.058Z,14.74
2023-04-28T08:50:54.769Z,14.68
2023-04-28T08:52:57.243Z,14.80
2023-04-28T08:55:01.546Z,14.65
2023-04-28T08:57:05.645Z,14.62
2023-04-28T08:59:07.993Z,14.80
2023-04-28T09:01:10.302Z,14.89
2023-04-28T09:03:13.807Z,15.09
2023-04-28T09:05:16.612Z,15.17
2023-04-28T09:07:19.226Z,15.59
2023-04-28T09:09:25.705Z,15.14
2023-04-28T09:11:27.982Z,15.16
2023-04-28T09:13:30.241Z,15.00
2023-04-28T09:15:38.406Z,15.15
2023-04-28T09:17:51.153Z,15.06
2023-04-28T09:19:53.560Z,14.95
2023-04-28T09:21:57.470Z,15.23
2023-04-28T09:23:59.849Z,15.31
2023-04-28T09:26:07.625Z,15.53
2023-04-28T09:28:22.092Z,15.95
2023-04-28T09:30:40.193Z,16.20
2023-04-28T09:32:43.027Z,15.78
2023-04-28T09:34:48.036Z,15.60
2023-04-28T09:36:50.740Z,16.14
2023-04-28T09:38:53.576Z,15.95
2023-04-28T09:41:01.189Z,15.82
2023-04-28T09:43:11.941Z,15.48
2023-04-28T09:45:24.565Z,15.89
2023-04-28T09:47:27.123Z,15.88
2023-04-28T09:49:29.518Z,15.64
2023-04-28T09:51:32.366Z,16.01
2023-04-28T09:53:35.817Z,16.02
2023-04-28T09:55:43.911Z,15.78
2023-04-28T09:57:50.034Z,15.61
2023-04-28T09:59:54.331Z,15.52
2023-04-28T10:01:57.545Z,15.48
2023-04-28T10:04:02.846Z,15.59
2023-04-28T10:06:06.202Z,15.80
2023-04-28T10:08:08.941Z,16.28
2023-04-28T10:10:14.733Z,16.56
2023-04-28T10:12:18.355Z,16.28
2023-04-28T10:14:20.687Z,16.35
2023-04-28T10:16:24.213Z,16.28
2023-04-28T10:18:28.687Z,16.35
2023-04-28T10:20:31.728Z,16.40
2023-04-28T10:23:01.413Z,16.80
2023-04-28T10:25:12.906Z,17.04
2023-04-28T10:27:16.043Z,17.09
2023-04-28T10:29:24.342Z,17.06
2023-04-28T10:31:26.709Z,17.24
2023-04-28T10:33:29.637Z,17.32
2023-04-28T10:35:32.652Z,17.41
2023-04-28T10:38:08.442Z,17.57
2023-04-28T10:40:36.625Z,17.79
2023-04-28T10:42:57.282Z,17.92
2023-04-28T10:44:59.581Z,17.76
2023-04-28T10:47:10.276Z,16.81
2023-04-28T10:49:12.706Z,17.33
2023-04-28T10:51:14.885Z,17.35
2023-04-28T10:53:17.448Z,17.84
2023-04-28T10:55:40.271Z,18.01
2023-04-28T10:57:42.938Z,18.44
2023-04-28T10:59:45.437Z,18.41
2023-04-28T11:01:48.072Z,18.46
2023-04-28T11:04:00.775Z,18.40
2023-04-28T11:06:28.400Z,18.46
2023-04-28T11:08:31.742Z,18.59
2023-04-28T11:11:24.529Z,18.25
2023-04-28T11:13:34.295Z,18.69
2023-04-28T11:15:37.763Z,19.20
2023-04-28T11:17:42.225Z,19.10
2023-04-28T11:19:46.268Z,19.29
2023-04-28T11:21:49.440Z,20.10
2023-04-28T11:23:52.580Z,20.11
2023-04-28T11:25:56.104Z,19.89
2023-04-28T11:28:05.262Z,20.05
2023-04-28T11:30:28.575Z,18.96
2023-04-28T11:32:33.064Z,19.05
2023-04-28T11:34:37.420Z,18.84
2023-04-28T11:36:41.106Z,18.52
2023-04-28T11:38:47.101Z,18.53
2023-04-28T11:40:59.301Z,18.02
2023-04-28T11:43:03.911Z,17.71
2023-04-28T11:45:07.193Z,17.66
2023-04-28T11:47:09.821Z,17.58
2023-04-28T11:49:12.641Z,17.42
2023-04-28T11:51:32.419Z,17.27
2023-04-28T11:53:44.918Z,17.55
2023-04-28T11:55:47.407Z,17.64
2023-04-28T11:57:49.717Z,17.17
2023-04-28T11:59:52.755Z,17.47
2023-04-28T12:02:00.242Z,18.14
2023-04-28T12:04:03.513Z,18.02
2023-04-28T12:06:06.013Z,18.65
2023-04-28T12:08:08.349Z,17.78
2023-04-28T12:10:12.531Z,17.47
2023-04-28T12:12:40.138Z,17.24
2023-04-28T12:15:02.234Z,17.17
2023-04-28T12:17:04.948Z,16.40
2023-04-28T12:19:10.274Z,16.36
2023-04-28T12:21:21.556Z,16.42
2023-04-28T12:23:33.900Z,16.80
2023-04-28T12:25:46.369Z,17.02
2023-04-28T12:28:08.540Z,17.10
2023-04-28T12:30:44.066Z,17.30
2023-04-28T12:32:47.034Z,17.05
2023-04-28T12:34:50.790Z,16.62
2023-04-28T12:36:53.496Z,18.02
2023-04-28T12:38:55.988Z,17.37
2023-04-28T12:40:58.898Z,17.24
2023-04-28T12:43:01.739Z,17.37
2023-04-28T12:45:04.512Z,17.60
2023-04-28T12:47:09.085Z,18.53
2023-04-28T12:49:11.829Z,18.86
2023-04-28T12:51:14.176Z,18.80
2023-04-28T12:53:16.983Z,18.80
2023-04-28T12:55:19.567Z,20.25
2023-04-28T12:57:21.883Z,20.69
2023-04-28T12:59:24.221Z,20.51
2023-04-28T13:01:27.502Z,20.70
2023-04-28T13:03:30.006Z,20.06
2023-04-28T13:05:33.149Z,19.88
2023-04-28T13:07:35.848Z,20.05
2023-04-28T13:09:38.622Z,19.69
2023-04-28T13:11:41.795Z,19.97
2023-04-28T13:13:45.225Z,19.89
2023-04-28T13:15:47.758Z,20.62
2023-04-28T13:17:50.170Z,20.79
2023-04-28T13:19:52.897Z,20.04
2023-04-28T13:21:55.391Z,19.87
2023-04-28T13:23:57.723Z,20.16
2023-04-28T13:26:01.049Z,19.97
2023-04-28T13:28:03.546Z,19.12
2023-04-28T13:30:06.366Z,18.87
2023-04-28T13:32:09.033Z,18.36
2023-04-28T13:34:16.065Z,18.83
2023-04-28T13:36:18.717Z,18.51
2023-04-28T13:38:21.484Z,18.48
2023-04-28T13:40:24.148Z,18.55
2023-04-28T13:42:26.521Z,18.34
2023-04-28T13:44:29.081Z,18.28
2023-04-28T13:46:31.625Z,18.08
2023-04-28T13:48:36.314Z,18.05
2023-04-28T13:50:39.706Z,18.11
2023-04-28T13:52:42.038Z,17.78
2023-04-28T13:54:44.739Z,18.01
2023-04-28T13:56:47.634Z,18.10
2023-04-28T13:58:50.022Z,18.17
2023-04-28T14:00:55.071Z,18.34
2023-04-28T14:03:00.755Z,18.64
2023-04-28T14:05:03.274Z,18.42
2023-04-28T14:07:06.489Z,18.36
2023-04-28T14:09:09.517Z,18.78
2023-04-28T14:11:12.066Z,18.86
2023-04-28T14:13:14.597Z,19.02
2023-04-28T14:15:18.158Z,18.66
2023-04-28T14:17:20.646Z,18.30
2023-04-28T14:19:24.346Z,18.77
2023-04-28T14:21:26.922Z,19.10
2023-04-28T14:23:29.742Z,18.99
2023-04-28T14:25:32.097Z,19.20
2023-04-28T14:27:34.794Z,19.02
2023-04-28T14:29:37.180Z,19.16
2023-04-28T14:31:39.624Z,18.68
2023-04-28T14:33:42.586Z,18.46
2023-04-28T14:35:45.041Z,18.63
2023-04-28T14:37:47.847Z,18.66
2023-04-28T14:39:50.852Z,18.43
2023-04-28T14:41:53.450Z,18.37
2023-04-28T14:43:56.772Z,18.54
2023-04-28T14:45:59.870Z,18.89
2023-04-28T14:48:02.354Z,19.29
2023-04-28T14:50:05.774Z,19.21
2023-04-28T14:52:08.906Z,19.07
2023-04-28T14:54:11.185Z,19.44
2023-04-28T14:56:19.090Z,18.99
2023-04-28T14:58:22.342Z,18.80
2023-04-28T15:00:24.962Z,18.75
2023-04-28T15:02:29.428Z,18.52
2023-04-28T15:04:32.715Z,18.39
2023-04-28T15:06:35.537Z,18.26
2023-04-28T15:08:38.185Z,18.23
2023-04-28T15:10:41.036Z,18.30
2023-04-28T15:12:43.901Z,18.27
2023-04-28T15:14:46.598Z,18.66
2023-04-28T15:16:49.270Z,18.32
2023-04-28T15:18:51.504Z,18.18
2023-04-28T15:20:54.572Z,18.39
2023-04-28T15:22:57.445Z,18.68
2023-04-28T15:25:00.156Z,18.63
2023-04-28T15:27:04.154Z,18.47
2023-04-28T15:29:07.038Z,18.33
2023-04-28T15:31:09.489Z,18.05
2023-04-28T15:33:17.682Z,18.14
2023-04-28T15:35:22.081Z,18.32
2023-04-28T15:37:41.598Z,18.14
2023-04-28T15:39:43.910Z,18.32
2023-04-28T15:41:46.676Z,18.08
2023-04-28T15:43:50.471Z,18.23
2023-04-28T15:45:53.079Z,18.14
2023-04-28T15:47:55.752Z,18.09
2023-04-28T15:49:59.242Z,17.82
2023-04-28T15:52:01.557Z,17.79
2023-04-28T15:54:04.354Z,17.65
2023-04-28T15:56:07.049Z,17.60
2023-04-28T15:58:10.856Z,17.53
2023-04-28T16:00:17.168Z,17.62
2023-04-28T16:02:22.285Z,17.61
2023-04-28T16:04:24.946Z,17.57
2023-04-28T16:06:27.747Z,17.64
2023-04-28T16:08:30.341Z,17.57
2023-04-28T16:10:33.097Z,17.46
2023-04-28T16:12:36.351Z,17.68
2023-04-28T16:14:38.990Z,17.60
2023-04-28T16:16:41.681Z,17.50
2023-04-28T16:18:44.346Z,17.53
2023-04-28T16:20:47.078Z,17.54
2023-04-28T16:22:49.477Z,17.50
2023-04-28T16:24:52.175Z,17.43
2023-04-28T16:26:54.925Z,17.47
2023-04-28T16:28:57.174Z,17.42
2023-04-28T16:30:59.490Z,17.40
2023-04-28T16:33:02.183Z,17.43
2023-04-28T16:35:06.493Z,17.38
2023-04-28T16:37:09.674Z,17.14
2023-04-28T16:39:12.229Z,17.18
2023-04-28T16:41:14.546Z,17.22
2023-04-28T16:43:17.838Z,17.24
2023-04-28T16:45:20.643Z,17.11
2023-04-28T16:47:23.160Z,17.06
2023-04-28T16:49:25.876Z,17.03
2023-04-28T16:51:28.476Z,16.95
2023-04-28T16:53:30.744Z,16.90
2023-04-28T16:55:35.171Z,17.04
2023-04-28T16:57:37.892Z,16.95
2023-04-28T16:59:40.271Z,16.78
2023-04-28T17:01:43.172Z,16.80
2023-04-28T17:03:46.302Z,16.85
2023-04-28T17:05:48.749Z,16.93
2023-04-28T17:07:51.110Z,16.97
2023-04-28T17:09:54.034Z,16.94
2023-04-28T17:11:56.464Z,16.99
2023-04-28T17:13:59.123Z,16.97
2023-04-28T17:16:02.485Z,16.95
2023-04-28T17:18:04.998Z,16.68
2023-04-28T17:20:07.897Z,16.84
2023-04-28T17:22:10.832Z,16.84
2023-04-28T17:24:13.403Z,16.82
2023-04-28T17:26:16.530Z,16.76
2023-04-28T17:28:19.084Z,16.66
2023-04-28T17:30:21.723Z,16.68
2023-04-28T17:32:24.302Z,16.66
2023-04-28T17:34:27.032Z,16.62
2023-04-28T17:36:30.553Z,16.69
2023-04-28T17:38:32.982Z,16.73
2023-04-28T17:40:35.662Z,16.78
2023-04-28T17:42:38.092Z,16.88
2023-04-28T17:44:40.415Z,16.91
2023-04-28T17:46:43.068Z,16.82
2023-04-28T17:48:45.820Z,16.60
2023-04-28T17:50:48.628Z,16.70
2023-04-28T17:52:51.845Z,16.70
2023-04-28T17:54:54.712Z,16.53
2023-04-28T17:56:57.223Z,16.68
2023-04-28T17:59:00.277Z,16.74
2023-04-28T18:01:07.674Z,16.69
2023-04-28T18:03:10.364Z,16.54
2023-04-28T18:05:13.064Z,16.54
2023-04-28T18:07:15.477Z,16.40
2023-04-28T18:09:18.006Z,16.55
2023-04-28T18:11:20.546Z,16.68
2023-04-28T18:13:24.044Z,16.62
2023-04-28T18:15:27.144Z,16.69
2023-04-28T18:17:29.714Z,16.66
2023-04-28T18:19:33.531Z,16.63
2023-04-28T18:21:37.515Z,16.69
2023-04-28T18:23:40.067Z,16.55
2023-04-28T18:25:44.019Z,16.53
2023-04-28T18:27:47.105Z,16.50
2023-04-28T18:29:52.081Z,16.50
2023-04-28T18:31:55.434Z,16.29
2023-04-28T18:33:59.898Z,16.21
2023-04-28T18:36:07.650Z,16.01
2023-04-28T18:38:11.741Z,16.22
2023-04-28T18:40:15.608Z,16.29
2023-04-28T18:42:18.856Z,16.25
2023-04-28T18:44:21.816Z,16.19
2023-04-28T18:46:25.618Z,16.29
2023-04-28T18:48:28.459Z,16.21
2023-04-28T18:50:31.890Z,15.96
2023-04-28T18:52:34.945Z,15.94
2023-04-28T18:54:38.044Z,16.11
2023-04-28T18:56:41.799Z,16.21
2023-04-28T18:58:46.323Z,16.15
2023-04-28T19:00:49.747Z,16.10
2023-04-28T19:02:52.877Z,15.98
2023-04-28T19:04:57.171Z,15.87
2023-04-28T19:07:00.804Z,15.80
2023-04-28T19:09:03.415Z,15.88
2023-04-28T19:11:11.295Z,15.61
2023-04-28T19:13:17.749Z,15.56
2023-04-28T19:15:20.925Z,15.58
2023-04-28T19:17:25.014Z,15.59
2023-04-28T19:19:27.906Z,15.46
2023-04-28T19:21:30.628Z,15.44
2023-04-28T19:23:34.274Z,15.35
2023-04-28T19:25:37.806Z,15.29
2023-04-28T19:27:43.416Z,15.25
2023-04-28T19:29:50.429Z,15.19
2023-04-28T19:31:53.814Z,15.20
2023-04-28T19:33:58.164Z,15.16
2023-04-28T19:36:01.474Z,15.19
2023-04-28T19:38:04.333Z,15.20
2023-04-28T19:40:09.348Z,15.21
2023-04-28T19:42:15.477Z,15.24
2023-04-28T19:44:18.290Z,15.20
2023-04-28T19:46:21.840Z,15.25
2023-04-28T19:48:26.385Z,15.19
2023-04-28T19:50:29.117Z,15.23
2023-04-28T19:52:32.146Z,15.18
2023-04-28T19:54:35.877Z,15.05
2023-04-28T19:56:39.103Z,15.09
2023-04-28T19:58:41.970Z,15.01
2023-04-28T20:00:45.422Z,15.02
2023-04-28T20:02:48.955Z,14.95
2023-04-28T20:04:52.671Z,15.02
2023-04-28T20:06:55.540Z,14.95
2023-04-28T20:09:06.454Z,14.93
2023-04-28T20:11:09.541Z,15.02
2023-04-28T20:13:17.215Z,14.99
2023-04-28T20:15:21.075Z,14.87
2023-04-28T20:17:24.111Z,14.87
2023-04-28T20:19:27.013Z,14.79
2023-04-28T20:21:30.096Z,14.85
2023-04-28T20:23:33.597Z,14.57
2023-04-28T20:25:37.800Z,14.67
2023-04-28T20:27:41.258Z,14.63
2023-04-28T20:29:44.372Z,14.57
2023-04-28T20:31:47.564Z,14.61
2023-04-28T20:33:51.625Z,14.57
2023-04-28T20:35:54.194Z,14.73
2023-04-28T20:37:58.134Z,14.62
2023-04-28T20:40:00.911Z,14.66
2023-04-28T20:42:03.563Z,14.70
2023-04-28T20:44:06.641Z,14.77
2023-04-28T20:46:13.740Z,14.68
2023-04-28T20:48:16.034Z,14.63
2023-04-28T20:50:18.507Z,14.64
2023-04-28T20:52:21.290Z,14.67
2023-04-28T20:54:23.787Z,14.68
2023-04-28T20:56:27.193Z,14.67
2023-04-28T20:58:30.998Z,14.57
2023-04-28T21:00:33.762Z,14.53
2023-04-28T21:02:36.339Z,14.61
2023-04-28T21:04:39.106Z,14.58
2023-04-28T21:06:41.412Z,14.45
2023-04-28T21:08:44.012Z,14.47
2023-04-28T21:10:46.813Z,14.47
2023-04-28T21:12:49.395Z,14.45
2023-04-28T21:14:52.052Z,14.49
2023-04-28T21:16:54.899Z,14.48
2023-04-28T21:18:57.637Z,14.40
2023-04-28T21:20:59.902Z,14.48
2023-04-28T21:23:02.909Z,14.50
2023-04-28T21:25:07.109Z,14.40
2023-04-28T21:27:09.739Z,14.43
2023-04-28T21:29:12.453Z,14.31
2023-04-28T21:31:14.720Z,14.40
2023-04-28T21:33:17.039Z,14.23
2023-04-28T21:35:19.771Z,14.27
2023-04-28T21:37:22.436Z,14.21
2023-04-28T21:39:24.722Z,14.37
2023-04-28T21:41:27.329Z,14.38
2023-04-28T21:43:29.843Z,14.26
2023-04-28T21:45:32.220Z,14.24
2023-04-28T21:47:34.856Z,14.17
2023-04-28T21:49:37.495Z,14.24
2023-04-28T21:51:42.998Z,14.19
2023-04-28T21:53:45.675Z,14.14
2023-04-28T21:55:48.090Z,14.15
2023-04-28T21:57:50.442Z,14.10
2023-04-28T21:59:53.323Z,14.23
2023-04-28T22:01:57.132Z,14.15
2023-04-28T22:04:01.650Z,14.15
2023-04-28T22:06:04.093Z,14.19
2023-04-28T22:08:06.428Z,14.19
2023-04-28T22:10:10.474Z,14.20
2023-04-28T22:12:13.170Z,14.12
2023-04-28T22:14:35.058Z,14.07
2023-04-28T22:16:38.709Z,14.04
2023-04-28T22:18:40.959Z,13.82
2023-04-28T22:20:44.472Z,13.69
